sensor_id;sensor_type;location;lat;lon;timestamp;temperature;humidity
84272;SHT31;74614;50.032;19.566;2024-02-14T00:01:31;13.99;35.70
84272;SHT31;74614;50.032;19.566;2024-02-14T00:03:29;13.93;36.14
84272;SHT31;74614;50.032;19.566;2024-02-14T00:05:30;13.95;35.62
84272;SHT31;74614;50.032;19.566;2024-02-14T00:07:27;14.02;34.94
84272;SHT31;74614;50.032;19.566;2024-02-14T00:09:33;13.84;35.31
84272;SHT31;74614;50.032;19.566;2024-02-14T00:11:27;13.98;34.97
84272;SHT31;74614;50.032;19.566;2024-02-14T00:13:28;13.82;34.79
84272;SHT31;74614;50.032;19.566;2024-02-14T00:15:30;13.73;35.11
84272;SHT31;74614;50.032;19.566;2024-02-14T00:17:31;13.87;34.82
84272;SHT31;74614;50.032;19.566;2024-02-14T00:19:27;13.89;34.99
84272;SHT31;74614;50.032;19.566;2024-02-14T00:21:29;13.87;34.90
84272;SHT31;74614;50.032;19.566;2024-02-14T00:23:27;13.80;34.69
84272;SHT31;74614;50.032;19.566;2024-02-14T00:25:27;13.84;34.80
84272;SHT31;74614;50.032;19.566;2024-02-14T00:27:32;13.82;34.79
84272;SHT31;74614;50.032;19.566;2024-02-14T00:29:28;13.75;34.44
84272;SHT31;74614;50.032;19.566;2024-02-14T00:31:30;13.79;34.55
84272;SHT31;74614;50.032;19.566;2024-02-14T00:33:30;13.89;34.44
84272;SHT31;74614;50.032;19.566;2024-02-14T00:35:32;13.93;34.49
84272;SHT31;74614;50.032;19.566;2024-02-14T00:37:28;13.93;35.24
84272;SHT31;74614;50.032;19.566;2024-02-14T00:39:27;13.96;35.18
84272;SHT31;74614;50.032;19.566;2024-02-14T00:41:27;13.86;34.89
84272;SHT31;74614;50.032;19.566;2024-02-14T00:43:28;14.09;34.68
84272;SHT31;74614;50.032;19.566;2024-02-14T00:45:28;14.09;34.16
84272;SHT31;74614;50.032;19.566;2024-02-14T00:47:29;14.14;34.41
84272;SHT31;74614;50.032;19.566;2024-02-14T00:49:27;14.19;34.78
84272;SHT31;74614;50.032;19.566;2024-02-14T00:51:28;14.31;34.34
84272;SHT31;74614;50.032;19.566;2024-02-14T00:53:28;14.37;33.21
84272;SHT31;74614;50.032;19.566;2024-02-14T00:55:27;14.33;32.55
84272;SHT31;74614;50.032;19.566;2024-02-14T00:57:27;14.26;33.15
84272;SHT31;74614;50.032;19.566;2024-02-14T00:59:27;14.10;33.61
84272;SHT31;74614;50.032;19.566;2024-02-14T01:01:33;13.95;34.28
84272;SHT31;74614;50.032;19.566;2024-02-14T01:03:32;13.96;34.97
84272;SHT31;74614;50.032;19.566;2024-02-14T01:05:29;14.16;34.52
84272;SHT31;74614;50.032;19.566;2024-02-14T01:07:29;14.03;34.61
84272;SHT31;74614;50.032;19.566;2024-02-14T01:09:28;14.07;34.88
84272;SHT31;74614;50.032;19.566;2024-02-14T01:11:28;14.11;35.07
84272;SHT31;74614;50.032;19.566;2024-02-14T01:13:27;14.24;34.70
84272;SHT31;74614;50.032;19.566;2024-02-14T01:15:32;14.40;34.76
84272;SHT31;74614;50.032;19.566;2024-02-14T01:17:28;14.41;35.07
84272;SHT31;74614;50.032;19.566;2024-02-14T01:19:29;14.62;34.68
84272;SHT31;74614;50.032;19.566;2024-02-14T01:21:34;14.75;33.94
84272;SHT31;74614;50.032;19.566;2024-02-14T01:23:32;14.80;33.99
84272;SHT31;74614;50.032;19.566;2024-02-14T01:25:26;14.80;34.21
84272;SHT31;74614;50.032;19.566;2024-02-14T01:27:29;14.86;34.12
84272;SHT31;74614;50.032;19.566;2024-02-14T01:29:28;14.82;34.02
84272;SHT31;74614;50.032;19.566;2024-02-14T01:31:29;14.84;34.25
84272;SHT31;74614;50.032;19.566;2024-02-14T01:33:29;14.88;34.22
84272;SHT31;74614;50.032;19.566;2024-02-14T01:35:27;14.93;34.06
84272;SHT31;74614;50.032;19.566;2024-02-14T01:37:28;14.78;34.12
84272;SHT31;74614;50.032;19.566;2024-02-14T01:39:29;14.64;34.34
84272;SHT31;74614;50.032;19.566;2024-02-14T01:41:30;14.61;34.76
84272;SHT31;74614;50.032;19.566;2024-02-14T01:43:29;14.62;34.93
84272;SHT31;74614;50.032;19.566;2024-02-14T01:45:34;14.68;34.77
84272;SHT31;74614;50.032;19.566;2024-02-14T01:47:28;14.81;35.13
84272;SHT31;74614;50.032;19.566;2024-02-14T01:49:31;14.78;34.74
84272;SHT31;74614;50.032;19.566;2024-02-14T01:51:31;14.75;34.68
84272;SHT31;74614;50.032;19.566;2024-02-14T01:53:31;14.62;35.19
84272;SHT31;74614;50.032;19.566;2024-02-14T01:55:29;14.72;34.89
84272;SHT31;74614;50.032;19.566;2024-02-14T01:57:28;14.62;35.06
84272;SHT31;74614;50.032;19.566;2024-02-14T01:59:27;14.52;35.95
84272;SHT31;74614;50.032;19.566;2024-02-14T02:01:27;14.56;36.21
84272;SHT31;74614;50.032;19.566;2024-02-14T02:03:29;14.77;35.37
84272;SHT31;74614;50.032;19.566;2024-02-14T02:05:32;14.82;34.77
84272;SHT31;74614;50.032;19.566;2024-02-14T02:07:32;14.84;35.41
84272;SHT31;74614;50.032;19.566;2024-02-14T02:09:28;14.95;35.77
84272;SHT31;74614;50.032;19.566;2024-02-14T02:11:27;15.06;35.57
84272;SHT31;74614;50.032;19.566;2024-02-14T02:13:35;15.18;35.10
84272;SHT31;74614;50.032;19.566;2024-02-14T02:15:30;15.33;34.07
84272;SHT31;74614;50.032;19.566;2024-02-14T02:17:33;15.25;34.14
84272;SHT31;74614;50.032;19.566;2024-02-14T02:19:30;15.01;34.96
84272;SHT31;74614;50.032;19.566;2024-02-14T02:21:33;14.86;35.41
84272;SHT31;74614;50.032;19.566;2024-02-14T02:23:29;14.65;35.73
84272;SHT31;74614;50.032;19.566;2024-02-14T02:25:34;14.56;36.26
84272;SHT31;74614;50.032;19.566;2024-02-14T02:27:27;14.62;36.60
84272;SHT31;74614;50.032;19.566;2024-02-14T02:29:31;14.84;36.43
84272;SHT31;74614;50.032;19.566;2024-02-14T02:31:28;14.86;35.84
84272;SHT31;74614;50.032;19.566;2024-02-14T02:33:29;14.99;35.04
84272;SHT31;74614;50.032;19.566;2024-02-14T02:35:28;15.12;35.73
84272;SHT31;74614;50.032;19.566;2024-02-14T02:37:28;14.99;35.32
84272;SHT31;74614;50.032;19.566;2024-02-14T02:39:26;15.06;35.25
84272;SHT31;74614;50.032;19.566;2024-02-14T02:41:29;15.22;35.21
84272;SHT31;74614;50.032;19.566;2024-02-14T02:43:31;15.29;34.67
84272;SHT31;74614;50.032;19.566;2024-02-14T02:45:28;15.36;35.04
84272;SHT31;74614;50.032;19.566;2024-02-14T02:47:29;15.32;34.73
84272;SHT31;74614;50.032;19.566;2024-02-14T02:49:29;15.33;34.02
84272;SHT31;74614;50.032;19.566;2024-02-14T02:51:26;15.23;34.49
84272;SHT31;74614;50.032;19.566;2024-02-14T02:53:30;14.91;35.18
84272;SHT31;74614;50.032;19.566;2024-02-14T02:55:26;14.77;35.97
84272;SHT31;74614;50.032;19.566;2024-02-14T02:57:26;14.70;36.49
84272;SHT31;74614;50.032;19.566;2024-02-14T02:59:29;14.75;36.22
84272;SHT31;74614;50.032;19.566;2024-02-14T03:01:36;14.85;35.39
84272;SHT31;74614;50.032;19.566;2024-02-14T03:03:28;14.81;35.52
84272;SHT31;74614;50.032;19.566;2024-02-14T03:05:32;14.68;36.22
84272;SHT31;74614;50.032;19.566;2024-02-14T03:07:31;14.64;36.53
84272;SHT31;74614;50.032;19.566;2024-02-14T03:09:28;14.78;35.57
84272;SHT31;74614;50.032;19.566;2024-02-14T03:11:28;14.81;35.92
84272;SHT31;74614;50.032;19.566;2024-02-14T03:13:29;14.70;36.40
84272;SHT31;74614;50.032;19.566;2024-02-14T03:15:27;14.86;36.12
84272;SHT31;74614;50.032;19.566;2024-02-14T03:17:31;14.82;35.73
84272;SHT31;74614;50.032;19.566;2024-02-14T03:19:29;15.02;35.32
84272;SHT31;74614;50.032;19.566;2024-02-14T03:21:25;15.13;34.88
84272;SHT31;74614;50.032;19.566;2024-02-14T03:23:27;14.86;35.44
84272;SHT31;74614;50.032;19.566;2024-02-14T03:25:26;14.64;36.29
84272;SHT31;74614;50.032;19.566;2024-02-14T03:27:33;14.70;36.08
84272;SHT31;74614;50.032;19.566;2024-02-14T03:29:27;14.70;35.86
84272;SHT31;74614;50.032;19.566;2024-02-14T03:31:28;14.67;35.63
84272;SHT31;74614;50.032;19.566;2024-02-14T03:33:32;14.51;36.30
84272;SHT31;74614;50.032;19.566;2024-02-14T03:35:29;14.48;36.80
84272;SHT31;74614;50.032;19.566;2024-02-14T03:37:27;14.57;36.38
84272;SHT31;74614;50.032;19.566;2024-02-14T03:39:29;14.51;36.57
84272;SHT31;74614;50.032;19.566;2024-02-14T03:41:27;14.68;36.32
84272;SHT31;74614;50.032;19.566;2024-02-14T03:43:30;14.84;35.73
84272;SHT31;74614;50.032;19.566;2024-02-14T03:45:29;14.95;35.96
84272;SHT31;74614;50.032;19.566;2024-02-14T03:47:31;15.08;35.58
84272;SHT31;74614;50.032;19.566;2024-02-14T03:49:31;15.19;34.84
84272;SHT31;74614;50.032;19.566;2024-02-14T03:51:29;15.16;34.61
84272;SHT31;74614;50.032;19.566;2024-02-14T03:53:28;14.99;35.17
84272;SHT31;74614;50.032;19.566;2024-02-14T03:55:28;15.08;35.53
84272;SHT31;74614;50.032;19.566;2024-02-14T03:57:26;15.15;34.80
84272;SHT31;74614;50.032;19.566;2024-02-14T03:59:32;15.18;34.61
84272;SHT31;74614;50.032;19.566;2024-02-14T04:01:34;14.99;34.92
84272;SHT31;74614;50.032;19.566;2024-02-14T04:03:27;14.74;35.24
84272;SHT31;74614;50.032;19.566;2024-02-14T04:05:26;14.57;35.77
84272;SHT31;74614;50.032;19.566;2024-02-14T04:07:28;14.45;35.68
84272;SHT31;74614;50.032;19.566;2024-02-14T04:09:26;14.54;36.29
84272;SHT31;74614;50.032;19.566;2024-02-14T04:11:30;14.54;35.81
84272;SHT31;74614;50.032;19.566;2024-02-14T04:13:27;14.71;36.00
84272;SHT31;74614;50.032;19.566;2024-02-14T04:15:30;14.68;35.64
84272;SHT31;74614;50.032;19.566;2024-02-14T04:17:31;14.52;35.78
84272;SHT31;74614;50.032;19.566;2024-02-14T04:19:25;14.41;36.46
84272;SHT31;74614;50.032;19.566;2024-02-14T04:21:33;14.37;36.29
84272;SHT31;74614;50.032;19.566;2024-02-14T04:23:37;14.44;35.73
84272;SHT31;74614;50.032;19.566;2024-02-14T04:26:35;14.29;36.01
84272;SHT31;74614;50.032;19.566;2024-02-14T04:28:29;14.21;36.48
84272;SHT31;74614;50.032;19.566;2024-02-14T04:30:45;14.16;37.25
84272;SHT31;74614;50.032;19.566;2024-02-14T04:33:30;14.23;36.25
84272;SHT31;74614;50.032;19.566;2024-02-14T04:35:26;14.17;36.35
84272;SHT31;74614;50.032;19.566;2024-02-14T04:37:28;14.24;36.11
84272;SHT31;74614;50.032;19.566;2024-02-14T04:39:26;14.06;35.71
84272;SHT31;74614;50.032;19.566;2024-02-14T04:41:28;13.98;36.71
84272;SHT31;74614;50.032;19.566;2024-02-14T04:43:29;14.03;36.90
84272;SHT31;74614;50.032;19.566;2024-02-14T04:45:28;14.13;36.10
84272;SHT31;74614;50.032;19.566;2024-02-14T04:47:30;14.09;36.20
84272;SHT31;74614;50.032;19.566;2024-02-14T04:49:27;14.07;36.20
84272;SHT31;74614;50.032;19.566;2024-02-14T04:51:26;13.96;36.57
84272;SHT31;74614;50.032;19.566;2024-02-14T04:53:26;13.93;36.47
84272;SHT31;74614;50.032;19.566;2024-02-14T04:55:27;13.92;36.84
84272;SHT31;74614;50.032;19.566;2024-02-14T04:57:29;14.00;36.83
84272;SHT31;74614;50.032;19.566;2024-02-14T04:59:29;14.10;35.79
84272;SHT31;74614;50.032;19.566;2024-02-14T05:01:26;14.07;35.41
84272;SHT31;74614;50.032;19.566;2024-02-14T05:03:25;14.09;35.40
84272;SHT31;74614;50.032;19.566;2024-02-14T05:05:29;13.96;35.47
84272;SHT31;74614;50.032;19.566;2024-02-14T05:07:27;13.90;35.52
84272;SHT31;74614;50.032;19.566;2024-02-14T05:09:29;13.76;35.38
84272;SHT31;74614;50.032;19.566;2024-02-14T05:11:28;13.71;35.46
84272;SHT31;74614;50.032;19.566;2024-02-14T05:13:26;13.66;35.93
84272;SHT31;74614;50.032;19.566;2024-02-14T05:15:26;13.66;35.32
84272;SHT31;74614;50.032;19.566;2024-02-14T05:17:30;13.86;34.80
84272;SHT31;74614;50.032;19.566;2024-02-14T05:19:28;13.86;34.90
84272;SHT31;74614;50.032;19.566;2024-02-14T05:21:27;13.82;34.79
84272;SHT31;74614;50.032;19.566;2024-02-14T05:23:27;13.71;35.12
84272;SHT31;74614;50.032;19.566;2024-02-14T05:25:26;13.66;35.38
84272;SHT31;74614;50.032;19.566;2024-02-14T05:27:26;13.66;35.96
84272;SHT31;74614;50.032;19.566;2024-02-14T05:29:32;13.62;35.85
84272;SHT31;74614;50.032;19.566;2024-02-14T05:31:47;13.83;34.92
84272;SHT31;74614;50.032;19.566;2024-02-14T05:34:24;13.99;34.05
84272;SHT31;74614;50.032;19.566;2024-02-14T05:36:22;13.95;34.05
84272;SHT31;74614;50.032;19.566;2024-02-14T05:38:25;13.82;34.62
84272;SHT31;74614;50.032;19.566;2024-02-14T05:40:21;13.65;35.00
84272;SHT31;74614;50.032;19.566;2024-02-14T05:42:29;13.72;34.89
84272;SHT31;74614;50.032;19.566;2024-02-14T05:44:23;13.76;34.75
84272;SHT31;74614;50.032;19.566;2024-02-14T05:47:21;13.95;33.48
84272;SHT31;74614;50.032;19.566;2024-02-14T05:47:23;14.10;33.38
84272;SHT31;74614;50.032;19.566;2024-02-14T05:49:27;14.10;33.61
84272;SHT31;74614;50.032;19.566;2024-02-14T05:51:32;13.92;33.93
84272;SHT31;74614;50.032;19.566;2024-02-14T05:53:28;13.76;34.51
84272;SHT31;74614;50.032;19.566;2024-02-14T05:55:27;13.61;34.48
84272;SHT31;74614;50.032;19.566;2024-02-14T05:57:32;13.66;34.49
84272;SHT31;74614;50.032;19.566;2024-02-14T05:59:28;13.53;34.64
84272;SHT31;74614;50.032;19.566;2024-02-14T06:01:28;13.41;34.63
84272;SHT31;74614;50.032;19.566;2024-02-14T06:03:26;13.52;34.00
84272;SHT31;74614;50.032;19.566;2024-02-14T06:05:27;13.41;33.62
84272;SHT31;74614;50.032;19.566;2024-02-14T06:07:36;13.24;34.47
84272;SHT31;74614;50.032;19.566;2024-02-14T06:10:35;13.34;35.09
84272;SHT31;74614;50.032;19.566;2024-02-14T06:12:25;13.35;34.76
84272;SHT31;74614;50.032;19.566;2024-02-14T06:14:32;13.42;33.84
84272;SHT31;74614;50.032;19.566;2024-02-14T06:16:26;13.31;34.20
84272;SHT31;74614;50.032;19.566;2024-02-14T06:18:35;13.31;34.72
84272;SHT31;74614;50.032;19.566;2024-02-14T06:20:29;13.21;35.07
84272;SHT31;74614;50.032;19.566;2024-02-14T06:22:33;13.42;35.02
84272;SHT31;74614;50.032;19.566;2024-02-14T06:24:27;13.32;35.01
84272;SHT31;74614;50.032;19.566;2024-02-14T06:26:37;13.44;34.64
84272;SHT31;74614;50.032;19.566;2024-02-14T06:28:28;13.37;34.84
84272;SHT31;74614;50.032;19.566;2024-02-14T06:30:33;13.37;34.76
84272;SHT31;74614;50.032;19.566;2024-02-14T06:32:28;13.51;34.80
84272;SHT31;74614;50.032;19.566;2024-02-14T06:34:36;13.63;34.77
84272;SHT31;74614;50.032;19.566;2024-02-14T06:37:26;13.71;35.39
84272;SHT31;74614;50.032;19.566;2024-02-14T06:39:27;13.84;34.63
84272;SHT31;74614;50.032;19.566;2024-02-14T06:41:27;13.93;34.21
84272;SHT31;74614;50.032;19.566;2024-02-14T06:43:27;14.11;33.47
84272;SHT31;74614;50.032;19.566;2024-02-14T06:45:27;0.00;0.00
84272;SHT31;74614;50.032;19.566;2024-02-14T06:47:26;13.98;33.27
84272;SHT31;74614;50.032;19.566;2024-02-14T06:49:27;13.93;35.70
84272;SHT31;74614;50.032;19.566;2024-02-14T06:51:28;13.98;34.31
84272;SHT31;74614;50.032;19.566;2024-02-14T06:53:27;14.00;35.13
84272;SHT31;74614;50.032;19.566;2024-02-14T06:55:27;14.07;34.27
84272;SHT31;74614;50.032;19.566;2024-02-14T06:57:30;14.19;33.92
84272;SHT31;74614;50.032;19.566;2024-02-14T06:59:26;14.23;34.54
84272;SHT31;74614;50.032;19.566;2024-02-14T07:01:33;14.13;34.72
84272;SHT31;74614;50.032;19.566;2024-02-14T07:03:30;14.23;34.39
84272;SHT31;74614;50.032;19.566;2024-02-14T07:05:27;14.14;35.05
84272;SHT31;74614;50.032;19.566;2024-02-14T07:07:27;14.24;34.70
84272;SHT31;74614;50.032;19.566;2024-02-14T07:09:26;14.23;36.50
84272;SHT31;74614;50.032;19.566;2024-02-14T07:11:36;14.50;35.65
84272;SHT31;74614;50.032;19.566;2024-02-14T07:14:34;14.92;34.81
84272;SHT31;74614;50.032;19.566;2024-02-14T07:16:27;14.96;35.46
84272;SHT31;74614;50.032;19.566;2024-02-14T07:18:34;15.25;34.26
84272;SHT31;74614;50.032;19.566;2024-02-14T07:20:32;15.42;34.04
84272;SHT31;74614;50.032;19.566;2024-02-14T07:22:33;15.52;34.16
84272;SHT31;74614;50.032;19.566;2024-02-14T07:24:28;15.56;34.00
84272;SHT31;74614;50.032;19.566;2024-02-14T07:26:32;15.68;34.70
84272;SHT31;74614;50.032;19.566;2024-02-14T07:28:30;15.97;33.16
84272;SHT31;74614;50.032;19.566;2024-02-14T07:30:33;16.08;33.29
84272;SHT31;74614;50.032;19.566;2024-02-14T07:32:27;16.04;33.13
84272;SHT31;74614;50.032;19.566;2024-02-14T07:34:32;16.17;32.93
84272;SHT31;74614;50.032;19.566;2024-02-14T07:36:28;16.11;33.23
84272;SHT31;74614;50.032;19.566;2024-02-14T07:38:35;16.14;33.26
84272;SHT31;74614;50.032;19.566;2024-02-14T07:40:27;16.18;33.60
84272;SHT31;74614;50.032;19.566;2024-02-14T07:42:34;16.15;33.73
84272;SHT31;74614;50.032;19.566;2024-02-14T07:45:20;16.29;33.56
84272;SHT31;74614;50.032;19.566;2024-02-14T07:47:20;16.26;33.40
84272;SHT31;74614;50.032;19.566;2024-02-14T07:49:27;16.38;33.51
84272;SHT31;74614;50.032;19.566;2024-02-14T07:51:26;16.39;33.42
84272;SHT31;74614;50.032;19.566;2024-02-14T07:53:31;16.41;33.52
84272;SHT31;74614;50.032;19.566;2024-02-14T07:55:28;16.42;33.69
84272;SHT31;74614;50.032;19.566;2024-02-14T07:57:27;16.63;35.02
84272;SHT31;74614;50.032;19.566;2024-02-14T07:59:27;16.92;34.85
84272;SHT31;74614;50.032;19.566;2024-02-14T08:01:32;17.16;34.68
84272;SHT31;74614;50.032;19.566;2024-02-14T08:03:30;17.44;33.97
84272;SHT31;74614;50.032;19.566;2024-02-14T08:05:27;17.71;32.69
84272;SHT31;74614;50.032;19.566;2024-02-14T08:07:26;17.95;32.80
84272;SHT31;74614;50.032;19.566;2024-02-14T08:09:25;18.12;32.82
84272;SHT31;74614;50.032;19.566;2024-02-14T08:11:29;18.30;32.40
84272;SHT31;74614;50.032;19.566;2024-02-14T08:13:25;18.60;31.26
84272;SHT31;74614;50.032;19.566;2024-02-14T08:15:27;18.71;32.02
84272;SHT31;74614;50.032;19.566;2024-02-14T08:17:26;18.87;29.56
84272;SHT31;74614;50.032;19.566;2024-02-14T08:19:28;18.90;30.56
84272;SHT31;74614;50.032;19.566;2024-02-14T08:21:26;18.93;30.37
84272;SHT31;74614;50.032;19.566;2024-02-14T08:23:26;19.08;30.66
84272;SHT31;74614;50.032;19.566;2024-02-14T08:25:26;19.18;30.40
84272;SHT31;74614;50.032;19.566;2024-02-14T08:27:30;19.45;29.77
84272;SHT31;74614;50.032;19.566;2024-02-14T08:29:27;19.51;29.54
84272;SHT31;74614;50.032;19.566;2024-02-14T08:31:33;19.60;30.04
84272;SHT31;74614;50.032;19.566;2024-02-14T08:33:29;19.58;28.91
84272;SHT31;74614;50.032;19.566;2024-02-14T08:35:29;19.66;29.06
84272;SHT31;74614;50.032;19.566;2024-02-14T08:37:36;19.59;29.68
84272;SHT31;74614;50.032;19.566;2024-02-14T08:39:28;19.67;29.09
84272;SHT31;74614;50.032;19.566;2024-02-14T08:41:29;19.69;27.69
84272;SHT31;74614;50.032;19.566;2024-02-14T08:43:27;19.58;27.98
84272;SHT31;74614;50.032;19.566;2024-02-14T08:45:30;19.55;27.55
84272;SHT31;74614;50.032;19.566;2024-02-14T08:47:33;19.44;29.19
84272;SHT31;74614;50.032;19.566;2024-02-14T08:49:29;19.46;29.10
84272;SHT31;74614;50.032;19.566;2024-02-14T08:51:28;19.49;27.43
84272;SHT31;74614;50.032;19.566;2024-02-14T08:53:28;19.44;26.72
84272;SHT31;74614;50.032;19.566;2024-02-14T08:55:31;19.49;26.33
84272;SHT31;74614;50.032;19.566;2024-02-14T08:57:33;19.42;26.73
84272;SHT31;74614;50.032;19.566;2024-02-14T08:59:29;19.28;27.18
84272;SHT31;74614;50.032;19.566;2024-02-14T09:01:36;19.25;27.15
84272;SHT31;74614;50.032;19.566;2024-02-14T09:04:29;19.15;27.47
84272;SHT31;74614;50.032;19.566;2024-02-14T09:06:37;19.08;27.77
84272;SHT31;74614;50.032;19.566;2024-02-14T09:08:35;19.07;27.37
84272;SHT31;74614;50.032;19.566;2024-02-14T09:10:34;18.83;26.63
84272;SHT31;74614;50.032;19.566;2024-02-14T09:12:29;18.75;27.00
84272;SHT31;74614;50.032;19.566;2024-02-14T09:14:37;18.80;27.26
84272;SHT31;74614;50.032;19.566;2024-02-14T09:17:26;18.61;27.29
84272;SHT31;74614;50.032;19.566;2024-02-14T09:19:29;18.57;26.61
84272;SHT31;74614;50.032;19.566;2024-02-14T09:21:30;18.66;27.42
84272;SHT31;74614;50.032;19.566;2024-02-14T09:23:29;18.78;27.39
84272;SHT31;74614;50.032;19.566;2024-02-14T09:25:32;18.95;27.36
84272;SHT31;74614;50.032;19.566;2024-02-14T09:27:29;18.91;26.93
84272;SHT31;74614;50.032;19.566;2024-02-14T09:29:27;19.04;26.17
84272;SHT31;74614;50.032;19.566;2024-02-14T09:31:30;19.18;25.85
84272;SHT31;74614;50.032;19.566;2024-02-14T09:33:28;19.15;26.91
84272;SHT31;74614;50.032;19.566;2024-02-14T09:35:30;19.22;27.23
84272;SHT31;74614;50.032;19.566;2024-02-14T09:37:27;19.21;25.13
84272;SHT31;74614;50.032;19.566;2024-02-14T09:39:30;19.19;24.67
84272;SHT31;74614;50.032;19.566;2024-02-14T09:41:31;19.28;25.34
84272;SHT31;74614;50.032;19.566;2024-02-14T09:43:36;19.15;24.98
84272;SHT31;74614;50.032;19.566;2024-02-14T09:45:26;19.12;25.70
84272;SHT31;74614;50.032;19.566;2024-02-14T09:47:31;19.09;24.40
84272;SHT31;74614;50.032;19.566;2024-02-14T09:49:28;19.07;24.24
84272;SHT31;74614;50.032;19.566;2024-02-14T09:51:29;19.00;24.58
84272;SHT31;74614;50.032;19.566;2024-02-14T09:53:30;18.93;24.25
84272;SHT31;74614;50.032;19.566;2024-02-14T09:55:53;18.84;25.26
84272;SHT31;74614;50.032;19.566;2024-02-14T09:58:29;18.75;25.19
84272;SHT31;74614;50.032;19.566;2024-02-14T10:00:31;18.73;24.61
84272;SHT31;74614;50.032;19.566;2024-02-14T10:02:31;19.00;26.01
84272;SHT31;74614;50.032;19.566;2024-02-14T10:04:33;18.90;25.11
84272;SHT31;74614;50.032;19.566;2024-02-14T10:06:29;19.04;25.02
84272;SHT31;74614;50.032;19.566;2024-02-14T10:08:29;18.95;24.28
84272;SHT31;74614;50.032;19.566;2024-02-14T10:10:33;19.08;24.89
84272;SHT31;74614;50.032;19.566;2024-02-14T10:12:29;19.18;24.46
84272;SHT31;74614;50.032;19.566;2024-02-14T10:14:28;19.09;23.73
84272;SHT31;74614;50.032;19.566;2024-02-14T10:16:28;19.12;24.53
84272;SHT31;74614;50.032;19.566;2024-02-14T10:18:31;19.28;24.19
84272;SHT31;74614;50.032;19.566;2024-02-14T10:20:30;19.26;25.59
84272;SHT31;74614;50.032;19.566;2024-02-14T10:22:33;0.00;0.00
84272;SHT31;74614;50.032;19.566;2024-02-14T10:24:33;19.48;24.96
84272;SHT31;74614;50.032;19.566;2024-02-14T10:26:28;19.32;24.26
84272;SHT31;74614;50.032;19.566;2024-02-14T10:28:28;19.18;24.06
84272;SHT31;74614;50.032;19.566;2024-02-14T10:30:29;19.15;24.52
84272;SHT31;74614;50.032;19.566;2024-02-14T10:32:28;19.12;25.25
84272;SHT31;74614;50.032;19.566;2024-02-14T10:34:30;19.12;24.94
84272;SHT31;74614;50.032;19.566;2024-02-14T10:37:30;19.03;25.06
84272;SHT31;74614;50.032;19.566;2024-02-14T10:40:28;19.00;25.95
84272;SHT31;74614;50.032;19.566;2024-02-14T10:42:28;19.18;26.18
84272;SHT31;74614;50.032;19.566;2024-02-14T10:44:27;19.19;25.20
84272;SHT31;74614;50.032;19.566;2024-02-14T10:46:37;19.18;25.62
84272;SHT31;74614;50.032;19.566;2024-02-14T10:48:35;19.31;25.74
84272;SHT31;74614;50.032;19.566;2024-02-14T10:50:33;19.21;25.85
84272;SHT31;74614;50.032;19.566;2024-02-14T10:52:29;19.32;25.25
84272;SHT31;74614;50.032;19.566;2024-02-14T10:54:28;19.26;25.29
84272;SHT31;74614;50.032;19.566;2024-02-14T10:56:29;19.44;25.83
84272;SHT31;74614;50.032;19.566;2024-02-14T10:58:28;19.39;25.15
84272;SHT31;74614;50.032;19.566;2024-02-14T11:00:30;19.33;25.88
84272;SHT31;74614;50.032;19.566;2024-02-14T11:02:27;19.36;26.52
84272;SHT31;74614;50.032;19.566;2024-02-14T11:04:27;19.38;25.60
84272;SHT31;74614;50.032;19.566;2024-02-14T11:06:28;19.44;26.34
84272;SHT31;74614;50.032;19.566;2024-02-14T11:08:33;19.31;25.40
84272;SHT31;74614;50.032;19.566;2024-02-14T11:10:28;19.25;25.41
84272;SHT31;74614;50.032;19.566;2024-02-14T11:12:34;19.21;26.62
84272;SHT31;74614;50.032;19.566;2024-02-14T11:14:31;19.15;25.89
84272;SHT31;74614;50.032;19.566;2024-02-14T11:16:27;19.18;26.17
84272;SHT31;74614;50.032;19.566;2024-02-14T11:18:28;19.11;27.01
84272;SHT31;74614;50.032;19.566;2024-02-14T11:20:34;19.15;25.03
84272;SHT31;74614;50.032;19.566;2024-02-14T11:22:35;19.40;27.04
84272;SHT31;74614;50.032;19.566;2024-02-14T11:24:36;19.60;25.32
84272;SHT31;74614;50.032;19.566;2024-02-14T11:26:39;20.03;25.93
84272;SHT31;74614;50.032;19.566;2024-02-14T11:28:38;20.09;26.11
84272;SHT31;74614;50.032;19.566;2024-02-14T11:30:30;20.13;24.60
84272;SHT31;74614;50.032;19.566;2024-02-14T11:32:28;19.98;24.14
84272;SHT31;74614;50.032;19.566;2024-02-14T11:34:30;20.06;24.96
84272;SHT31;74614;50.032;19.566;2024-02-14T11:36:27;19.75;25.76
84272;SHT31;74614;50.032;19.566;2024-02-14T11:38:26;19.79;26.09
84272;SHT31;74614;50.032;19.566;2024-02-14T11:40:27;19.88;24.99
84272;SHT31;74614;50.032;19.566;2024-02-14T11:42:27;20.11;25.88
84272;SHT31;74614;50.032;19.566;2024-02-14T11:44:28;20.04;24.24
84272;SHT31;74614;50.032;19.566;2024-02-14T11:46:25;20.17;24.97
84272;SHT31;74614;50.032;19.566;2024-02-14T11:48:29;20.20;25.05
84272;SHT31;74614;50.032;19.566;2024-02-14T11:50:27;20.14;24.51
84272;SHT31;74614;50.032;19.566;2024-02-14T11:52:31;20.06;24.58
84272;SHT31;74614;50.032;19.566;2024-02-14T11:54:27;20.04;25.52
84272;SHT31;74614;50.032;19.566;2024-02-14T11:56:29;20.10;26.15
84272;SHT31;74614;50.032;19.566;2024-02-14T11:58:30;20.14;24.50
84272;SHT31;74614;50.032;19.566;2024-02-14T12:00:28;20.09;25.15
84272;SHT31;74614;50.032;19.566;2024-02-14T12:02:29;20.04;25.76
84272;SHT31;74614;50.032;19.566;2024-02-14T12:04:26;20.11;25.35
84272;SHT31;74614;50.032;19.566;2024-02-14T12:06:26;20.24;24.83
84272;SHT31;74614;50.032;19.566;2024-02-14T12:08:27;20.38;24.37
84272;SHT31;74614;50.032;19.566;2024-02-14T12:10:32;20.40;23.86
84272;SHT31;74614;50.032;19.566;2024-02-14T12:12:28;20.51;24.80
84272;SHT31;74614;50.032;19.566;2024-02-14T12:14:34;20.69;24.60
84272;SHT31;74614;50.032;19.566;2024-02-14T12:16:29;20.59;24.92
84272;SHT31;74614;50.032;19.566;2024-02-14T12:18:27;20.54;24.06
84272;SHT31;74614;50.032;19.566;2024-02-14T12:20:31;20.33;23.90
84272;SHT31;74614;50.032;19.566;2024-02-14T12:22:30;20.11;24.06
84272;SHT31;74614;50.032;19.566;2024-02-14T12:24:28;20.16;23.78
84272;SHT31;74614;50.032;19.566;2024-02-14T12:26:27;20.04;25.13
84272;SHT31;74614;50.032;19.566;2024-02-14T12:28:33;20.01;25.13
84272;SHT31;74614;50.032;19.566;2024-02-14T12:30:44;20.07;25.68
84272;SHT31;74614;50.032;19.566;2024-02-14T12:33:28;19.93;23.88
84272;SHT31;74614;50.032;19.566;2024-02-14T12:36:28;19.96;24.51
84272;SHT31;74614;50.032;19.566;2024-02-14T12:38:35;19.86;24.37